Terminal Aerodrome Forecast
Issued by NWS

Home | Current Version | Previous Version | Text Only | Print | Product List | Glossary On
Versions: 1 2 3 4 5 6 7 8 9 10 11 12 13 14 15
000
FTUS42 KMHX 012300
TAFOAJ
TAF
KOAJ 012332Z 0200/0224 20005KT P6SM SCT040 SCT200
     FM020800 22003KT 3SM BR SCT200
     FM021230 23008KT P6SM SCT050
      AMD LTD TO CLD VIS AND WIND=

USA.gov is the U.S. government's official web portal to all federal, state and local government web resources and services.